x

9444090 - Port Angeles, Wa (ptaw1) Weather Station

12:36 - Tue 6th Dec 2016 All times are PST. -8 hours from GMT.

  • Wind
    3mph, 6mph gusts
  • Sea Temp 49°f
  • Air Temp 38°f
  • Sea Pressure 1024mb
  • 9444090 - Port Angeles, Wa
  • 9444090 - Port Angeles, Wa

More Historic Weather Station data

Upgrade to MSW Pro to gain access to the past 30 days of data for over 8000 Wavebouys and Weather Stations around the globe.

Join Pro

Comparision Forecast

View Surf forecast
   
mar. 12/06 12:36 3 6 mph 1024mb 49f 38f
12:30 1 3 mph 1023.9mb 49f 38f
12:24 3 8 mph 1023.9mb 49f 39f
12:18 7 9 mph 1023.9mb 49f 41f
12:12 2 5 mph 1023.8mb 49f 41f
12:06 1 6 mph 1023.8mb 49f 40f
12:00 6 7 mph 1023.8mb 49f 41f
11:36 3
mph
1023.8mb 49f 40f
11:30 2 5 mph 1023.8mb 49f 40f
11:24  -  5 mph 1023.7mb 49f 39f
11:18 3 6 mph 1023.7mb 49f 40f
11:12 2 5 mph 1023.7mb 49f 40f
11:06 5 7 mph 1023.7mb 49f 40f
11:00 1 3 mph 1023.7mb 49f 39f
10:30 5
mph
1023.5mb 49f 37f
10:24 2 6 mph 1023.5mb 49f 37f
10:18 2 7 mph 1023.5mb 49f 38f
10:12 6 8 mph 1023.4mb 49f 40f
10:06 3 8 mph 1023.3mb 49f 40f
10:00 5 7 mph 1023.2mb 49f 40f
9:30 11 18 mph 1022.9mb 49f 40f
9:24 6 16 mph 1022.9mb 49f 40f
9:18 9 15 mph 1022.8mb 49f 40f
9:12 8 16 mph 1022.8mb 49f 40f
9:06 13 20 mph 1022.8mb 49f 39f
9:00 11 15 mph 1022.7mb 49f 40f
8:36 11 16 mph 1022.2mb 49f 39f
8:30 14 16 mph 1022.1mb 49f 38f
8:24 9 15 mph 1022.1mb 49f 38f
8:18 9 14 mph 1022mb 49f 38f
8:12 14 20 mph 1021.9mb 49f 38f
8:06 13 21 mph 1021.8mb 49f 38f
8:00 10 15 mph 1021.7mb 49f 38f
7:36 15 21 mph 1021.4mb 49f 38f
7:30 14 18 mph 1021.4mb 49f 38f
7:24 13 17 mph 1021.3mb 49f 38f
7:18 15 20 mph 1021.3mb 49f 38f
7:12 13 17 mph 1021.2mb 49f 39f
7:06 13 15 mph 1021.2mb 49f 39f
7:00 14 18 mph 1021.2mb 49f 39f
6:36 15 20 mph 1021mb 49f 39f
6:30 15 20 mph 1021mb 49f 39f
6:24 15 21 mph 1020.8mb 49f 39f
6:18 14 21 mph 1020.8mb 49f 39f
6:12 18 24 mph 1020.7mb 49f 39f
6:06 18 24 mph 1020.7mb 49f 39f
6:00 15 21 mph 1020.6mb 49f 39f
5:36 22 25 mph 1020.2mb 49f 39f
5:30 21 24 mph 1020.1mb 49f 39f
5:24 20 24 mph 1020.1mb 49f 39f
5:18 20 25 mph 1020mb 49f 39f
5:12 17 23 mph 1019.9mb 49f 39f
5:06 21 24 mph 1019.9mb 49f 38f
5:00 16 22 mph 1019.9mb 49f 38f
4:36 13 20 mph 1019.6mb 49f 36f
4:30 2 7 mph 1019.5mb 49f 34f
4:24 7 10 mph 1019.4mb 49f 34f
4:18 7 11 mph 1019.3mb 49f 34f
4:12 7 14 mph 1019.3mb 49f 34f
4:06 6 11 mph 1019.3mb 49f 34f
4:00 3 8 mph 1019.4mb 49f 34f
3:36 5 9 mph 1019mb 49f 35f
3:30 5 8 mph 1018.9mb 49f 35f
3:24 7 14 mph 1018.9mb 49f 35f
3:18 5 16 mph 1018.8mb 49f 34f
3:12 13 18 mph 1018.8mb 49f 35f
3:06 11 18 mph 1018.7mb 49f 35f
3:00 11 17 mph 1018.6mb 49f 35f
2:36 8 15 mph 1018.2mb 49f 35f
2:30 10 18 mph 1018.1mb 49f 35f
2:24 13 20 mph 1018mb 49f 35f
2:18 11 22 mph 1018mb 49f 36f
2:12 20 24 mph 1017.8mb 49f 36f
2:06 18 24 mph 1017.7mb 49f 36f
2:00 17 22 mph 1017.7mb 49f 36f
1:36 22 25 mph 1017.3mb 49f 37f
1:30 20 26 mph 1017.3mb 49f 37f
1:24 22 26 mph 1017.2mb 49f 38f
1:18 15 18 mph 1017.2mb 49f 38f
1:12 17 21 mph 1017.2mb 49f 38f
1:06 14 21 mph 1017.1mb 49f 39f
1:00 16 21 mph 1017.1mb 49f 38f
12:36 11 23 mph 1017mb 49f 39f
12:30 15 22 mph 1017mb 50f 39f
12:24 15 18 mph 1017mb 50f 38f
12:18 13 15 mph 1017mb 50f 38f
12:12 11 15 mph 1017mb 50f 38f
12:06 6 13 mph 1017mb 50f 38f
12:00 5 10 mph 1017mb 50f 35f
lun. 12/05 11:36 3 6 mph 1017mb 50f 35f
11:30 2 6 mph 1017mb 50f 35f
11:24 5 7 mph 1016.9mb 50f 37f
11:18 3 8 mph 1016.9mb 50f 37f
11:12 7 11 mph 1016.9mb 50f 35f
11:06 6 9 mph 1016.9mb 50f 36f
11:00 2 5 mph 1016.9mb 50f 36f
10:36 5 8 mph 1016.9mb 50f 35f
10:30 6 7 mph 1016.8mb 50f 35f
10:24 6 7 mph 1016.8mb 50f 35f
10:18 6 8 mph 1016.8mb 50f 34f
10:12 6 8 mph 1016.8mb 50f 34f
10:06 7 8 mph 1016.8mb 50f 34f
10:00 7 9 mph 1016.8mb 50f 34f
9:36 6 8 mph 1016.6mb 50f 34f
9:30 6 8 mph 1016.6mb 50f 34f
9:24 6 7 mph 1016.6mb 50f 34f
9:18 6 8 mph 1016.6mb 50f 34f
9:12 6 7 mph 1016.5mb 50f 34f
9:06 6 7 mph 1016.5mb 50f 34f
9:00 6 8 mph 1016.5mb 50f 34f
8:36 6 8 mph 1016.4mb 50f 34f
8:30 7 8 mph 1016.3mb 50f 34f
8:24 7 8 mph 1016.3mb 50f 34f
8:18 6 7 mph 1016.3mb 50f 34f
8:12 6 7 mph 1016.3mb 50f 34f
8:06 6 7 mph 1016.3mb 50f 34f
8:00 6
mph
1016.4mb 50f 34f
7:36 5 6 mph 1016.4mb 50f 34f
7:30 5 6 mph 1016.4mb 50f 34f
7:24 5 6 mph 1016.4mb 50f 34f
7:18 3 5 mph 1016.4mb 50f 34f
7:12 3 5 mph 1016.4mb 50f 34f
7:06 3 5 mph 1016.5mb 50f 34f
7:00 3 5 mph 1016.5mb 50f 34f
6:36  -  mph 1016.6mb 50f 33f
6:30  -  mph 1016.6mb 50f 33f
6:24  -  mph 1016.6mb 50f 33f
6:18  -  mph 1016.6mb 50f 33f
6:12  -  mph 1016.7mb 50f 33f
6:06  -  mph 1016.7mb 50f 33f
6:00  -  mph 1016.7mb 50f 33f
5:36 2 5 mph 1016.8mb 50f 33f
5:30 5 8 mph 1016.8mb 50f 34f
5:24 8 10 mph 1016.7mb 50f 34f
5:18 5 7 mph 1016.7mb 50f 36f
5:12 6 8 mph 1016.6mb 50f 36f
5:06  -  5 mph 1016.6mb 50f 36f
5:00 3 5 mph 1016.5mb 50f 35f
4:36 3 5 mph 1016.4mb 50f 36f
4:30 2 7 mph 1016.4mb 50f 37f
4:24 3 6 mph 1016.4mb 50f 37f
4:18 5 6 mph 1016.3mb 50f 37f
4:12 1 8 mph 1016.4mb 50f 36f
4:06 3 6 mph 1016.4mb 50f 36f
4:00 3 6 mph 1016.3mb 50f 36f
3:36 11 15 mph 1015.9mb 50f 39f
3:30 14 17 mph 1015.8mb 50f 40f
3:24 11 15 mph 1015.9mb 50f 41f
3:18 10 14 mph 1015.8mb 50f 42f
3:12 5 8 mph 1015.8mb 50f 43f
3:06 6 8 mph 1015.7mb 50f 43f
3:00 7 8 mph 1015.7mb 50f 43f
2:36 5 7 mph 1015.9mb 50f 43f
2:30 5 7 mph 1015.8mb 50f 43f
2:24 6 8 mph 1015.8mb 50f 44f
2:18 6 8 mph 1015.8mb 50f 44f
2:12 6 8 mph 1015.9mb 50f 44f
2:06 5 6 mph 1015.9mb 50f 43f
2:00 5 7 mph 1016mb 50f 44f
1:54 6 7 mph 1016mb 50f 44f
1:48 6 7 mph 1016mb 50f 44f
1:36 3 6 mph 1016.1mb 50f 45f
1:30 5 8 mph 1016.1mb 50f 44f
1:24 7 8 mph 1016.1mb 50f 44f
1:18 6 8 mph 1016.1mb 50f 44f
1:12 6 7 mph 1016.1mb 50f 43f
1:06 6 7 mph 1016.2mb 50f 44f
1:00 5 7 mph 1016.3mb 50f 44f
12:54 6
mph
1016.4mb 50f 44f
12:48 6 8 mph 1016.5mb 50f 44f
12:36 6 9 mph 1016.6mb 50f 44f
12:30 6 8 mph 1016.6mb 50f 44f
12:24 6 7 mph 1016.6mb 50f 44f
12:18 3 5 mph 1016.7mb 50f 46f
12:12 1 2 mph 1016.7mb 50f 46f
12:06 1 3 mph 1016.7mb 50f 44f
12:00 1 2 mph 1016.7mb 50f 43f
11:54 2 5 mph 1016.7mb 50f 44f
11:48 1 3 mph 1016.7mb 50f 44f
11:36  -  3 mph 1016.8mb 50f 43f
11:30  -  2 mph 1016.8mb 50f 43f
11:24  -  3 mph 1016.8mb 50f 43f
11:18 3 5 mph 1016.8mb 50f 46f
11:12 2 3 mph 1016.8mb 50f 46f
11:06 1 3 mph 1016.9mb 50f 46f
11:00 2 5 mph 1016.8mb 50f 46f
10:54 2 3 mph 1016.9mb 50f 45f
10:48 2 6 mph 1016.8mb 50f 44f
10:36 2 3 mph 1016.8mb 50f 43f
10:30 2 5 mph 1016.8mb 50f 42f
10:24 2 5 mph 1016.8mb 50f 43f
10:18 3 5 mph 1016.8mb 50f 42f
10:12 3 6 mph 1016.8mb 50f 41f
10:06 5 7 mph 1016.8mb 50f 42f
10:00 5 6 mph 1016.7mb 50f 42f
9:54 5 6 mph 1016.7mb 50f 42f
9:48 3 5 mph 1016.7mb 50f 41f
9:36 3 5 mph 1016.7mb 50f 41f
9:30 2 3 mph 1016.7mb 50f 41f
9:24 3 6 mph 1016.6mb 50f 40f
9:18 2 6 mph 1016.6mb 50f 39f
9:12 2 5 mph 1016.6mb 50f 39f
9:06 2 5 mph 1016.7mb 50f 40f
9:00 1 2 mph 1016.7mb 50f 39f
8:54 1 5 mph 1016.7mb 50f 37f
8:48 5 6 mph 1016.9mb 50f 37f
8:36 5 6 mph 1017mb 50f 36f
8:30 6 7 mph 1017.2mb 50f 35f
8:24 6 7 mph 1017.3mb 50f 35f
8:18 5 7 mph 1017.2mb 50f 35f
8:12 5 6 mph 1017.2mb 50f 35f
8:06 5 6 mph 1017.1mb 50f 35f
8:00 6 7 mph 1017mb 50f 35f
7:54 6 9 mph 1017mb 50f 35f
7:48 6 8 mph 1016.8mb 50f 35f
7:36 6 7 mph 1016.9mb 50f 35f
7:30 6 7 mph 1016.8mb 50f 35f
7:24 6
mph
1016.8mb 50f 35f
7:18 2 6 mph 1016.7mb 50f 35f
7:12 5 6 mph 1016.7mb 50f 35f
7:06 3 6 mph 1016.7mb 50f 35f
7:00 3 5 mph 1016.7mb 50f 36f
6:54 5 6 mph 1016.7mb 50f 36f
6:48 3 5 mph 1016.8mb 50f 36f
6:36 7 8 mph 1017mb 50f 37f
6:30 5 7 mph 1017.1mb 50f 37f
6:24 5 7 mph 1017.1mb 50f 37f
6:18 6 8 mph 1017.1mb 50f 38f
6:12 5 8 mph 1017.1mb 50f 37f
6:06 5 9 mph 1017.1mb 50f 37f
6:00 3 6 mph 1017mb 50f 37f
5:54 5 7 mph 1017mb 50f 37f
5:48 7 9 mph 1017.1mb 50f 37f
5:36 8 10 mph 1017.1mb 50f 37f
5:30 7 9 mph 1017.1mb 50f 36f
5:24 6 8 mph 1017.1mb 50f 36f
5:18 6 7 mph 1017.1mb 50f 36f
5:12 6 7 mph 1017.2mb 50f 36f
5:06 6 8 mph 1017.1mb 50f 37f
5:00 6 8 mph 1017.1mb 50f 37f
4:54 5 8 mph 1017.2mb 50f 37f
4:48 6 9 mph 1017.3mb 50f 37f
4:36 6 8 mph 1017.3mb 50f 37f
4:30 5 6 mph 1017.4mb 50f 37f
4:24 3 6 mph 1017.4mb 50f 38f
4:18 6
mph
1017.6mb 50f 38f
4:12 3 5 mph 1017.7mb 50f 38f
4:06 5 7 mph 1017.8mb 50f 38f
4:00 5 6 mph 1017.9mb 50f 38f
3:54 6 7 mph 1017.9mb 50f 38f
3:48 6 8 mph 1018mb 50f 37f
3:36 2 3 mph 1018.1mb 50f 38f
3:30 3
mph
1018.2mb 50f 38f
3:24 1 2 mph 1018.2mb 50f 39f
3:18 2 3 mph 1018.4mb 50f 38f
3:12 3 5 mph 1018.5mb 50f 38f
3:06 3
mph
1018.5mb 50f 37f
3:00  -  2 mph 1018.6mb 50f 37f
2:54 2 5 mph 1018.7mb 50f 37f
2:48 5 6 mph 1018.7mb 50f 37f
2:36 2 3 mph 1018.8mb 50f 36f
2:30  -  2 mph 1018.8mb 50f 36f
2:24 2 3 mph 1018.9mb 50f 36f
2:18 2 3 mph 1018.9mb 50f 36f
2:12 3 5 mph 1019mb 50f 36f
2:06 3 5 mph 1019mb 50f 36f
2:00 3 5 mph 1018.9mb 50f 36f
1:54 5 6 mph 1018.9mb 50f 36f
1:48 5 6 mph 1019mb 50f 36f
1:36 6 8 mph 1019mb 50f 35f
1:30 5 6 mph 1019.1mb 50f 35f
1:24 6 7 mph 1019.1mb 50f 36f
1:18 5 6 mph 1019.1mb 50f 35f
1:12 5 6 mph 1019.1mb 50f 35f
1:06 3 5 mph 1019.2mb 50f 35f
1:00 3 5 mph 1019.3mb 50f 35f
12:54 5 6 mph 1019.3mb 50f 36f
12:48 3 5 mph 1019.4mb 50f 36f
12:36 3 7 mph 1019.6mb 50f 36f
12:30 6 7 mph 1019.6mb 50f 36f
12:24 5 6 mph 1019.6mb 50f 36f
12:18 2 7 mph 1019.6mb 50f 36f
12:12 2 3 mph 1019.5mb 50f 36f
12:06 2 5 mph 1019.5mb 50f 36f
12:00 3 5 mph 1019.6mb 50f 36f
dim. 12/04 11:54 3 5 mph 1019.6mb 50f 37f
11:48 3 6 mph 1019.6mb 50f 37f
11:36 2 3 mph 1019.7mb 50f 36f
11:30 2 3 mph 1019.7mb 50f 36f
11:24 3 5 mph 1019.7mb 50f 37f
11:18 3 5 mph 1019.8mb 50f 37f
11:12 3 5 mph 1019.8mb 50f 37f
11:06 3 6 mph 1019.9mb 50f 37f
11:00 5 6 mph 1020mb 50f 37f
10:54 7 8 mph 1019.9mb 50f 38f
10:48 5 6 mph 1020mb 50f 38f
10:36 5 8 mph 1020mb 50f 39f
10:30 7 8 mph 1019.9mb 50f 39f
10:24 6 9 mph 1019.8mb 50f 39f
10:18 7 11 mph 1019.9mb 50f 39f
10:12 7 9 mph 1019.9mb 50f 38f
10:06 7 8 mph 1019.8mb 50f 38f
10:00 6 8 mph 1019.8mb 50f 38f
9:54 6 7 mph 1019.8mb 50f 38f
9:48 5
mph
1019.8mb 50f 38f
9:36 3 7 mph 1019.8mb 50f 38f
9:30 5 6 mph 1019.8mb 50f 39f
9:24 5 9 mph 1019.8mb 50f 40f
9:18 5 7 mph 1019.7mb 50f 39f
9:12 5 6 mph 1019.6mb 50f 39f
9:06 5 6 mph 1019.7mb 50f 39f
9:00 5 6 mph 1019.6mb 50f 40f
8:54 2 5 mph 1019.7mb 50f 40f
8:48 5 6 mph 1019.6mb 50f 40f
8:36 5 7 mph 1019.5mb 50f 41f
8:30 5 9 mph 1019.6mb 50f 41f
8:24 5 9 mph 1019.5mb 50f 41f
8:18 7 13 mph 1019.5mb 50f 41f
8:12 7 14 mph 1019.5mb 50f 41f
8:06 8 13 mph 1019.5mb 50f 40f
8:00 6 11 mph 1019.4mb 50f 40f
7:54 8 11 mph 1019.4mb 50f 40f
7:48 7 11 mph 1019.3mb 50f 40f
7:36 5 8 mph 1019.2mb 50f 39f
7:30 6 8 mph 1019.2mb 50f 40f
7:24 5 6 mph 1019.1mb 50f 40f
7:18 6 8 mph 1019.1mb 50f 40f
7:12 6 9 mph 1019mb 50f 40f
7:06 5 10 mph 1018.9mb 50f 41f
7:00 6 11 mph 1019mb 50f 42f
6:54 8 11 mph 1019.1mb 50f 42f
6:48 6 11 mph 1019.2mb 50f 42f
6:36 6 9 mph 1019.4mb 50f 42f
6:30 6 13 mph 1019.4mb 50f 42f
6:24 6 14 mph 1019.5mb 50f 42f
6:18 6 10 mph 1019.5mb 50f 42f
6:12 6 13 mph 1019.6mb 50f 42f
6:06 6 13 mph 1019.6mb 50f 42f
6:00 5 11 mph 1019.6mb 50f 42f
5:54 8 13 mph 1019.6mb 50f 43f
5:48 10 20 mph 1019.5mb 50f 43f
5:36 8 20 mph 1019.2mb 50f 43f
5:30 13 22 mph 1019.1mb 50f 44f
5:24 10 18 mph 1019mb 50f 44f
5:18 8 18 mph 1019mb 50f 44f
5:12 9 14 mph 1019mb 50f 44f
5:06 8 16 mph 1019mb 50f 44f
5:00 8 17 mph 1019mb 50f 44f
4:54 10 17 mph 1019mb 50f 44f
4:48 9 18 mph 1019mb 50f 44f
4:36 8 17 mph 1019mb 50f 44f
4:30 9 18 mph 1019mb 50f 43f
4:24 10 18 mph 1019mb 50f 44f
4:18 9 18 mph 1019mb 50f 44f
4:12 9 14 mph 1019mb 50f 44f
4:06 10 20 mph 1019mb 50f 44f
4:00 7 16 mph 1019mb 50f 44f
3:54 9 16 mph 1019mb 50f 45f
3:48 11 18 mph 1019mb 50f 45f
3:36 9 16 mph 1018.9mb 50f 45f
3:30 9 14 mph 1018.9mb 50f 45f
3:24 6 13 mph 1018.8mb 50f 45f
3:18 9 16 mph 1018.7mb 50f 45f
3:12 8 15 mph 1018.6mb 50f 46f
3:06 9 15 mph 1018.6mb 50f 46f
3:00 8 15 mph 1018.5mb 50f 46f
2:54 5 14 mph 1018.4mb 50f 46f
2:48 9 15 mph 1018.3mb 50f 46f
2:36 8 13 mph 1018.3mb 50f 47f
2:30 10 16 mph 1018.3mb 50f 47f
2:24 8 15 mph 1018.2mb 50f 47f
2:18 8 15 mph 1018.2mb 50f 47f
2:12 10 16 mph 1018.2mb 50f 47f
2:06 11 16 mph 1018.2mb 50f 47f
2:00 8 17 mph 1018.1mb 50f 46f
1:54 9 18 mph 1018.2mb 50f 46f
1:48 14 20 mph 1018.2mb 50f 46f
1:36 16 22 mph 1018.2mb 50f 46f
1:30 20 29 mph 1018.3mb 50f 46f
1:24 16 24 mph 1018.3mb 50f 46f
1:18 17 23 mph 1018.2mb 50f 46f
1:12 15 28 mph 1018.2mb 50f 46f
1:06 14 18 mph - - -
1:00 10 18 mph - - -
12:54 15 21 mph 1018.1mb 50f 46f
12:48 17 32 mph 1018mb 50f 46f
12:36 15 21 mph 1017.9mb 50f 46f
12:30 13 21 mph 1018mb 50f 46f
12:24 15 24 mph 1018mb 50f 46f
12:18 20 26 mph 1017.9mb 50f 46f
12:12 15 22 mph 1018mb 50f 46f
12:06 22 28 mph 1017.9mb 50f 45f
12:00 18 28 mph 1017.8mb 50f 45f
11:54 14 22 mph 1017.8mb 50f 45f
11:48 14 20 mph 1017.8mb 50f 45f
11:36 14 22 mph 1017.7mb 50f 45f
11:30 13 17 mph 1017.7mb 50f 45f
11:24 14 18 mph 1017.7mb 50f 45f
11:18 11 17 mph 1017.7mb 50f 45f
11:12 11 21 mph 1017.7mb 50f 45f
11:06 10 21 mph 1017.7mb 50f 45f
11:00 13 18 mph 1017.8mb 50f 44f
10:54 13 21 mph 1017.9mb 50f 44f
10:48 10 18 mph 1017.9mb 50f 45f
10:36 10 15 mph 1018mb 50f 44f
10:30 13 16 mph 1018mb 50f 44f
10:24 11 15 mph 1018mb 50f 44f
10:18 11 16 mph 1017.9mb 51f 44f
10:12 10 14 mph 1017.8mb 51f 43f
10:06 10 15 mph 1017.7mb 51f 43f
10:00 11 15 mph 1017.6mb 51f 43f
9:36 7 11 mph 1017.1mb 51f 43f
9:30 8 11 mph 1017mb 51f 43f
9:24 6 13 mph 1016.9mb 51f 43f
9:18 9 13 mph 1016.8mb 51f 43f
9:12 8 16 mph 1016.7mb 51f 43f
9:06 9 17 mph 1016.7mb 51f 43f
9:00 9 17 mph 1016.8mb 51f 43f
8:54 6 10 mph 1016.8mb 51f 42f
8:48 8 13 mph 1016.8mb 51f 42f
8:36 8 13 mph 1016.7mb 51f 42f
8:30 9 16 mph 1016.6mb 51f 42f
8:24 7 17 mph 1016.6mb 51f 42f
8:18 9 14 mph 1016.5mb 51f 42f
8:12 9 16 mph 1016.5mb 51f 42f
8:06 7 13 mph 1016.5mb 51f 42f
8:00 10 18 mph 1016.5mb 51f 42f
7:54 9 16 mph 1016.5mb 51f 42f
7:48 7 13 mph 1016.6mb 51f 42f
7:36 8 16 mph 1016.5mb 51f 41f
7:30 8 14 mph 1016.5mb 51f 41f
7:24 8 13 mph 1016.5mb 51f 41f
7:18 8 15 mph 1016.4mb 51f 42f
7:12 8 17 mph 1016.3mb 51f 41f
7:06 11 21 mph 1016.2mb 51f 41f
7:00 11 24 mph 1016.2mb 51f 41f
6:54 11 18 mph 1016.2mb 51f 41f
6:48 9 16 mph 1016.2mb 51f 41f
6:36 11 18 mph 1016.2mb 51f 41f
6:30 10 20 mph 1016.1mb 51f 41f
6:24 9 16 mph 1016.1mb 51f 41f
6:18 10 16 mph 1016mb 51f 41f
6:12 7 15 mph 1016mb 51f 41f
6:06 8 18 mph 1016mb 51f 41f
6:00 9 14 mph 1015.9mb 51f 41f
5:36 10 20 mph 1016mb 51f 42f
5:30 14 21 mph 1016mb 51f 42f
5:24 10 16 mph 1016.1mb 51f 41f
5:18 8 16 mph 1016mb 51f 41f
5:12 10 22 mph 1016mb 51f 41f
5:06 14 21 mph 1016mb 51f 41f
5:00 11 22 mph 1016.2mb 51f 41f
4:54 11 25 mph 1016.3mb 51f 41f
4:48 14 30 mph 1016.4mb 51f 41f
4:36 8 14 mph 1016.3mb 51f 41f
4:30 11 21 mph 1016.4mb 51f 42f
4:24 14 20 mph 1016.6mb 51f 42f
4:18 7 15 mph 1016.5mb 51f 41f
4:12 8 14 mph 1016.5mb 51f 41f
4:06 7 15 mph 1016.5mb 51f 41f
4:00 10 20 mph 1016.6mb 51f 41f
3:54 14 20 mph 1016.6mb 51f 41f
3:48 15 21 mph 1016.6mb 51f 42f
3:36 11 15 mph 1016.6mb 51f 41f
3:30 13 17 mph 1016.6mb 51f 41f
3:24 10 17 mph 1016.5mb 51f 41f
3:18 16 28 mph 1016.7mb 51f 41f
3:12 18 28 mph 1016.8mb 51f 42f
3:06 15 24 mph 1016.8mb 51f 42f
3:00 8 15 mph 1016.7mb 51f 42f
2:54 8 18 mph 1016.7mb 51f 42f
2:48 8 17 mph 1016.7mb 51f 42f
2:36 8 17 mph 1016.8mb 51f 42f
2:30 13 22 mph 1016.9mb 51f 42f
2:24 13 22 mph 1016.9mb 51f 42f
2:18 13 24 mph 1016.8mb 51f 42f
2:12 14 25 mph 1016.8mb 51f 42f
2:06 13 25 mph 1016.8mb 51f 42f
2:00 15 22 mph 1016.8mb 51f 43f
1:54 15 24 mph 1016.8mb 51f 43f
1:48 14 22 mph 1016.8mb 51f 43f
1:36 16 21 mph 1017mb 51f 43f
1:30 16 21 mph 1017mb 51f 43f
1:24 6 11 mph 1017.1mb 51f 43f
1:18 7 20 mph 1017.1mb 51f 43f
1:12 8 17 mph 1017.2mb 51f 43f
1:06 6 10 mph 1017.2mb 51f 43f
1:00 5 8 mph 1017.2mb 51f 43f
12:54 3 8 mph 1017.2mb 51f 43f
12:48 7 9 mph 1017.3mb 51f 43f
12:36 3 6 mph 1017.3mb 51f 43f
12:30 3 6 mph 1017.4mb 51f 43f
12:24 6 8 mph 1017.4mb 51f 43f
12:18 6 8 mph 1017.4mb 51f 44f
12:12 6 9 mph 1017.3mb 51f 44f
12:06 7 8 mph 1017.3mb 51f 44f
12:00 3 7 mph 1017.3mb 51f 43f
sam. 12/03 11:54 3 8 mph 1017.4mb 51f 43f
11:48 7 10 mph 1017.4mb 51f 44f
11:36 10 14 mph 1017.6mb 51f 44f
11:30 9 11 mph 1017.6mb 51f 44f
11:24 8 11 mph 1017.6mb 51f 44f
11:18 9 10 mph 1017.8mb 51f 44f
11:12 8 10 mph 1017.9mb 51f 44f
11:06 3 7 mph 1017.9mb 51f 43f
11:00 2 6 mph 1017.9mb 51f 44f
10:54 3 6 mph 1018mb 51f 44f
10:48 7 11 mph 1017.9mb 51f 44f
10:36 10 13 mph 1018mb 51f 44f
10:30 11 14 mph 1018.2mb 51f 45f
10:24 11 14 mph 1018.1mb 51f 45f
10:18 8 10 mph 1018.1mb 51f 44f
10:12 7 9 mph 1018.2mb 51f 44f
10:06 6 8 mph 1018.3mb 51f 44f
10:00 5 8 mph 1018.3mb 51f 44f
9:54 6 8 mph 1018.3mb 51f 44f
9:48 6 8 mph 1018.4mb 51f 44f
9:36 6 13 mph 1018.5mb 51f 44f
9:30 8 14 mph 1018.6mb 51f 44f
9:24 9 14 mph 1018.5mb 51f 45f
9:18 9 11 mph 1018.5mb 51f 45f
9:12 8 10 mph 1018.6mb 51f 44f
9:06 5 7 mph 1018.5mb 51f 44f
9:00 5 6 mph 1018.6mb 51f 44f
8:54 2 6 mph 1018.7mb 51f 44f
8:48 5 7 mph 1018.8mb 51f 44f
8:36 5 8 mph 1018.9mb 51f 44f
8:30 6 10 mph 1018.9mb 51f 44f
8:24 5 8 mph 1019mb 51f 44f
8:18 5 6 mph 1019.1mb 51f 44f
8:12 1 3 mph 1019mb 51f 44f
8:06 2 3 mph 1018.9mb 51f 44f
8:00 2 3 mph 1018.9mb 51f 44f
7:54 3
mph
1018.9mb 51f 44f
7:48 2 5 mph 1018.9mb 51f 44f
7:36 3
mph
1019.2mb 51f 44f
7:30 2 3 mph 1019.2mb 51f 44f
7:24 3
mph
1019.3mb 51f 45f
7:18 2 5 mph 1019.4mb 51f 45f
7:12 3 5 mph 1019.5mb 51f 45f
7:06 2 5 mph 1019.5mb 51f 45f
7:00 1 5 mph 1019.5mb 51f 45f
6:54 3 6 mph 1019.6mb 51f 45f
6:48 5 6 mph 1019.7mb 51f 45f
6:36 5 6 mph 1019.7mb 51f 45f
6:30 5 6 mph 1019.6mb 51f 45f
6:24 3
mph
1019.6mb 51f 45f
6:18 2
mph
1019.7mb 51f 46f
6:12  -  1 mph 1019.8mb 51f 46f
6:06  -  1 mph 1019.9mb 51f 46f
6:00 1
mph
1019.8mb 51f 46f
5:54 1 3 mph 1019.8mb 51f 46f
5:48 3 5 mph 1020mb 51f 46f
5:36 3
mph
1020.1mb 51f 46f
5:30 2 5 mph 1020.2mb 51f 46f
5:24 2 3 mph 1020.2mb 51f 47f
5:18 1 2 mph 1020.4mb 51f 47f
5:12 2 3 mph 1020.5mb 51f 47f
5:06 3 6 mph 1020.5mb 51f 48f
5:00 2 5 mph 1020.6mb 51f 47f
4:54 2 3 mph 1020.8mb 51f 47f
4:48 2 3 mph 1020.8mb 51f 47f
4:36 2 5 mph 1020.9mb 51f 48f
4:30 2 3 mph 1021.2mb 51f 48f
4:24 2
mph
1020.9mb 51f 48f
4:18 1 2 mph 1021.1mb 51f 48f
4:12  -  2 mph 1021mb 51f 49f
4:06 2 5 mph 1021mb 51f 49f
4:00 5 6 mph 1020.8mb 51f 49f
3:54 3
mph
1021.4mb 51f 49f
3:48 3 5 mph 1021.7mb 51f 49f
3:36 3 6 mph 1021.8mb 51f 49f
3:30 6 7 mph 1021.8mb 51f 49f
3:24 6 7 mph 1022mb 51f 49f
3:18 6 7 mph 1021.8mb 51f 49f
3:12 6 7 mph 1022mb 51f 49f
3:06 6 7 mph 1022.1mb 51f 49f
3:00 7 9 mph 1022.1mb 51f 49f
2:54 9 10 mph 1021.8mb 51f 49f
2:48 8 9 mph 1021.8mb 51f 49f
2:36 6 8 mph 1022.4mb 51f 49f
2:30 7 9 mph 1022.4mb 51f 49f
2:24 7 8 mph 1022.4mb 51f 49f
2:18 6 9 mph 1022.7mb 51f 49f
2:12 9 10 mph 1022.8mb 51f 49f
2:06 8 9 mph 1022.8mb 51f 50f
2:00 9 10 mph 1022.8mb 51f 50f
1:54 9 11 mph 1022.9mb 51f 50f
1:48 7 9 mph 1022.9mb 51f 50f
1:36 6 8 mph 1022.9mb 51f 50f
1:30 7 9 mph 1022.8mb 51f 50f
1:24 7 9 mph 1023mb 51f 50f
1:18 5 7 mph 1023mb 51f 50f
1:12 3 7 mph 1023mb 51f 50f
1:06 6 8 mph 1023.3mb 51f 50f
1:00 7 9 mph 1023.4mb 51f 50f
12:54 7 10 mph 1023.5mb 51f 50f
12:48 7 8 mph 1023.7mb 51f 50f
12:36 2 6 mph 1023.5mb 51f 51f
12:30 6 8 mph 1023.7mb 51f 51f
12:24 6 7 mph 1023.8mb 51f 51f
12:18 2 3 mph 1024.1mb 51f 51f
12:12 2 5 mph 1024.1mb 51f 51f
12:06 5 6 mph 1024mb 51f 52f
12:00 3
mph
1023.9mb 51f 52f
11:54 2 3 mph 1024mb 51f 51f
11:48  -  1 mph 1024.3mb 51f 51f
11:36 1 2 mph 1024.3mb 51f 51f
11:30  -  mph 1024.1mb 51f 51f
11:24  -  1 mph 1024mb 51f 50f
11:18 1 5 mph 1024.1mb 51f 49f
11:12 3 6 mph 1024mb 51f 49f
11:06 5
mph
1024.2mb 51f 49f
11:00 2 3 mph - - -
10:54 1 3 mph 1024.7mb 51f 49f
10:48 2 3 mph 1024.7mb 51f 49f
10:36 1 2 mph 1024.5mb 51f 49f
10:30  -  5 mph 1024.6mb 51f 49f
10:24 3 6 mph 1024.6mb 51f 48f
10:18 1 5 mph 1024.7mb 51f 48f
10:12 3 8 mph 1024.7mb 51f 47f
10:06 3 7 mph 1024.8mb 51f 47f
10:00  -  1 mph 1024.8mb 51f 46f
9:54 1 2 mph 1024.2mb 51f 45f
9:48 2 6 mph 1024mb 51f 45f
9:36 2 5 mph 1023.8mb 51f 45f
9:30 5 7 mph 1023.7mb 51f 45f
9:24 6
mph
1024.1mb 51f 46f
9:18 3 5 mph 1024.4mb 51f 46f
9:12 2 8 mph 1024.4mb 51f 47f
9:06 7 8 mph 1024.6mb 51f 46f
9:00 5 6 mph 1024.5mb 51f 45f
8:54 5 7 mph 1024.2mb 51f 44f
8:48 6 9 mph 1024mb 51f 44f
8:36 2 6 mph 1024mb 51f 44f
8:30 5 7 mph 1023.8mb 51f 44f
8:24 5 6 mph 1023.8mb 51f 44f
8:18 5 7 mph 1023.7mb 51f 45f
8:12 6 8 mph 1023.3mb 51f 45f
8:06 6 8 mph 1023.8mb 51f 46f
8:00 5 8 mph 1024mb 51f 46f
7:54 5 7 mph 1024.3mb 51f 46f
7:48 2 5 mph 1024.1mb 51f 47f
7:36  -  2 mph 1024.2mb 51f 45f
7:30 1 5 mph 1024mb 51f 45f
7:24 3 6 mph 1023.9mb 51f 43f
7:18 2 3 mph 1024mb 51f 43f
7:12 2 5 mph 1024.1mb 51f 42f
7:06 2 5 mph 1023.9mb 51f 42f
7:00 3
mph
1023.9mb 51f 42f
6:54 3
mph
1024mb 51f 43f
6:48 2 5 mph 1023.9mb 51f 43f
6:36 2 9 mph 1023.8mb 51f 46f
6:30 3 5 mph 1023.9mb 51f 44f
6:24 2 5 mph 1023.7mb 51f 44f
6:18 3 6 mph 1023.4mb 51f 44f
6:12 3 8 mph 1023.2mb 51f 47f
6:06 6 10 mph 1023.4mb 51f 48f
6:00 6 9 mph 1023.5mb 51f 46f
5:54 5 7 mph 1023.4mb 51f 44f
5:48 5 7 mph 1023.6mb 51f 43f
5:36 6
mph
1023.5mb 51f 43f
5:30 3 5 mph 1023.4mb 51f 43f
5:24 3 5 mph 1023.3mb 51f 44f
5:18 5 6 mph 1023.3mb 51f 45f
5:12 3 6 mph 1023.3mb 51f 46f
5:06 6 10 mph 1023.4mb 51f 46f
5:00 6 8 mph 1023.5mb 51f 45f
4:54 6 9 mph 1023.5mb 51f 45f
4:48 6 8 mph 1023.6mb 51f 45f
4:36 5 7 mph 1023.5mb 51f 45f
4:30 6
mph
1023.4mb 51f 46f
4:24 5 8 mph 1023.5mb 51f 46f
4:18 6 9 mph 1023.4mb 51f 47f
4:12 6 7 mph 1023.5mb 51f 47f
4:06 7 13 mph 1023.5mb 51f 48f
4:00 5 10 mph 1023.5mb 51f 47f
3:54 7 13 mph 1023.6mb 51f 48f
3:48 7 14 mph 1023.6mb 51f 48f
3:36 8 13 mph 1023.5mb 51f 48f
3:30 7 13 mph 1023.5mb 51f 48f
3:24 7 10 mph 1023.5mb 51f 48f
3:18 8 10 mph 1023.3mb 51f 48f
3:12 8 10 mph 1023.3mb 51f 48f
3:06 9 11 mph 1023.3mb 51f 48f
3:00 8 10 mph 1023.2mb 51f 48f
2:54 6 9 mph 1023.1mb 51f 48f
2:48 8 11 mph 1023.1mb 51f 48f
2:36 8 10 mph 1023mb 51f 48f
2:30 7 9 mph 1023mb 51f 48f
2:24 6 8 mph 1022.8mb 51f 48f
2:18 7 10 mph 1022.9mb 51f 48f
2:12 8 11 mph 1022.9mb 51f 48f
2:06 9 11 mph 1022.8mb 51f 48f
2:00 9 14 mph 1022.7mb 51f 48f
1:54 7 10 mph 1022.6mb 51f 47f
1:48 11 14 mph 1022.6mb 51f 48f
1:36 8 11 mph 1022.5mb 51f 48f
1:30 8 10 mph 1022.6mb 51f 48f
1:24 5 10 mph 1022.5mb 51f 48f
1:18 10 17 mph 1022.5mb 51f 49f
1:12 13 17 mph 1022.4mb 51f 49f
1:06 9 13 mph 1022.4mb 51f 48f
1:00 7 11 mph 1022.4mb 51f 48f
12:54 7 11 mph 1022.5mb 51f 48f
12:48 8 10 mph 1022.4mb 51f 49f
12:36 8 13 mph 1022.3mb 51f 49f
12:30 9 13 mph 1022.1mb 51f 49f
12:24 9 16 mph 1022mb 51f 49f
12:18 8 13 mph 1022.1mb 51f 49f
12:12 6 11 mph 1022.1mb 51f 48f
12:06 6 10 mph 1022.1mb 51f 48f
12:00 8 11 mph 1022mb 51f 49f
ven. 12/02 11:54 9 11 mph 1021.9mb 51f 48f
11:48 10 14 mph 1021.8mb 51f 49f
11:36 7 11 mph 1021.7mb 51f 48f
11:30 3 7 mph 1021.4mb 51f 48f
11:24 5 8 mph 1021.3mb 51f 48f
11:18 6 10 mph 1021.3mb 51f 48f
11:12 7 14 mph 1021.1mb 51f 48f
11:06 8 16 mph 1021.2mb 51f 48f
11:00 11 16 mph 1021.1mb 51f 48f
10:54 10 14 mph 1020.9mb 51f 48f
10:48 7 10 mph 1021.1mb 51f 48f
10:36 8 11 mph 1020.8mb 51f 48f
10:30 10 14 mph 1020.7mb 51f 48f
10:24 10 14 mph 1020.6mb 51f 49f
10:18 10 14 mph 1020.6mb 51f 49f
10:12 10 17 mph 1020.4mb 51f 49f